Terminal Aerodrome Forecast
Issued by NWS

Home | Current Version | Previous Version | Text Only | Print | Product List | Glossary On
Versions: 1 2 3 4 5 6 7 8 9 10 11 12 13 14 15 16
521
FTUS44 KLIX 231306 AAA
TAFGPT
TAF AMD
KGPT 231306Z 2313/2412 34011KT P6SM OVC030
     FM231600 33011G22KT P6SM OVC025
     FM232000 33011G22KT P6SM SCT035
     FM240400 33010KT P6SM SCT140=

USA.gov is the U.S. government's official web portal to all federal, state and local government web resources and services.